Time;durP1;ratioP1;P1;durP2;ratioP2;P2;SDS_P1;SDS_P2;PMS_P1;PMS_P2;Temp;Humidity;BMP_temperature;BMP_pressure;BME280_temperature;BME280_humidity;BME280_pressure;Samples;Min_cycle;Max_cycle;Signal;HPM_P1;HPM_P2
2022/11/30 00:02:14;;;;;;;;;;;;;;;29.01;24.00;101217.84;4978317;28;1224;-19
2022/11/30 00:04:39;;;;;;;;;;;;;;;29.56;23.36;101233.84;4978036;28;1205;-19
2022/11/30 00:07:05;;;;;;;;;;;;;;;29.87;22.96;101232.00;4977682;28;1384;-20
2022/11/30 00:09:30;;;;;;;;;;;;;;;30.04;22.66;101240.75;4977766;28;1194;-20
2022/11/30 00:11:55;;;;;;;;;;;;;;;30.23;22.52;101243.06;4977641;28;1252;-20
2022/11/30 00:14:21;;;;;;;;;;;;;;;29.07;23.36;101243.38;4977737;28;1295;-19
2022/11/30 00:16:46;;;;;;;;;;;;;;;29.08;24.17;101242.34;4978329;28;1966;-20
2022/11/30 00:19:11;;;;;;;;;;;;;;;29.62;23.38;101245.00;4977026;28;1153;-20
2022/11/30 00:21:36;;;;;;;;;;;;;;;29.91;22.87;101263.09;4977884;28;1145;-19
2022/11/30 00:24:03;;;;;;;;;;;;;;;29.67;22.46;101261.56;4977687;28;1256;-20
2022/11/30 00:26:28;;;;;;;;;;;;;;;28.95;23.18;101254.63;4977688;28;1205;-20
2022/11/30 00:28:54;;;;;;;;;;;;;;;29.38;23.77;101250.50;4977350;28;1184;-20
2022/11/30 00:31:19;;;;;;;;;;;;;;;29.84;23.04;101255.94;4976952;28;1248;-20
2022/11/30 00:33:45;;;;;;;;;;;;;;;30.08;22.76;101241.19;4977920;28;1169;-20
2022/11/30 00:36:11;;;;;;;;;;;;;;;30.20;22.74;101260.56;4977112;28;1910;-20
2022/11/30 00:38:36;;;;;;;;;;;;;;;29.75;22.26;101238.91;4977575;28;1173;-20
2022/11/30 00:41:02;;;;;;;;;;;;;;;29.01;23.28;101244.13;4976947;28;1165;-20
2022/11/30 00:43:27;;;;;;;;;;;;;;;29.53;23.62;101249.69;4976942;28;1125;-20
2022/11/30 00:45:52;;;;;;;;;;;;;;;29.93;22.92;101266.47;4977356;28;1216;-19
2022/11/30 00:48:18;;;;;;;;;;;;;;;30.08;22.89;101275.63;4977624;28;1272;-20
2022/11/30 00:50:43;;;;;;;;;;;;;;;29.39;22.77;101254.06;4980195;28;1141;-20
2022/11/30 00:53:08;;;;;;;;;;;;;;;28.96;23.31;101267.13;4981261;28;1141;-20
2022/11/30 00:55:33;;;;;;;;;;;;;;;29.64;23.43;101261.94;4963609;28;1178;-20
2022/11/30 00:57:59;;;;;;;;;;;;;;;30.00;22.88;101272.00;4981068;28;1970;-20
2022/11/30 01:00:24;;;;;;;;;;;;;;;30.16;22.80;101272.81;4981054;28;1158;-20
2022/11/30 01:02:53;;;;;;;;;;;;;;;30.37;22.33;101269.31;4981171;28;1102;-20
2022/11/30 01:05:18;;;;;;;;;;;;;;;29.80;22.33;101269.88;4980659;28;1090;-20
2022/11/30 01:07:43;;;;;;;;;;;;;;;29.09;23.06;101263.00;4979629;28;1157;-20
2022/11/30 01:10:09;;;;;;;;;;;;;;;29.58;23.52;101267.03;4981242;28;1149;-19
2022/11/30 01:12:34;;;;;;;;;;;;;;;29.97;22.86;101263.38;4963490;28;1233;-20
2022/11/30 01:14:59;;;;;;;;;;;;;;;30.26;22.48;101256.25;4981348;28;1196;-20
2022/11/30 01:17:25;;;;;;;;;;;;;;;29.39;22.62;101257.63;4980888;28;1894;-20
2022/11/30 01:19:50;;;;;;;;;;;;;;;29.18;23.81;101256.47;4980365;28;1216;-20
2022/11/30 01:22:15;;;;;;;;;;;;;;;29.94;23.06;101248.34;4980896;28;1142;-19
2022/11/30 01:24:40;;;;;;;;;;;;;;;30.14;22.74;101242.31;4963562;28;1138;-19
2022/11/30 01:27:06;;;;;;;;;;;;;;;30.30;22.61;101235.81;4980922;28;1142;-19
2022/11/30 01:29:32;;;;;;;;;;;;;;;30.49;22.16;101220.78;4981188;28;1165;-19
2022/11/30 01:31:58;;;;;;;;;;;;;;;30.16;22.16;101224.78;4963001;28;1233;-20
2022/11/30 01:34:23;;;;;;;;;;;;;;;29.24;22.60;101211.53;4980652;28;1208;-20
2022/11/30 01:36:48;;;;;;;;;;;;;;;29.57;23.47;101210.31;4980785;28;1910;-20
2022/11/30 01:39:13;;;;;;;;;;;;;;;30.04;22.94;101207.34;4980743;28;1145;-20
2022/11/30 01:41:39;;;;;;;;;;;;;;;30.30;22.36;101208.66;4980608;28;1137;-20
2022/11/30 01:44:04;;;;;;;;;;;;;;;29.99;21.99;101209.78;4962570;28;1134;-20
2022/11/30 01:46:48;;;;;;;;;;;;;;;29.23;23.10;101211.75;4980425;28;1122;-20
2022/11/30 01:49:17;;;;;;;;;;;;;;;29.72;23.23;101231.16;4980324;28;1177;-19
2022/11/30 01:51:55;;;;;;;;;;;;;;;30.14;22.90;101228.75;4963106;28;1166;-19
2022/11/30 01:54:24;;;;;;;;;;;;;;;30.28;22.71;101227.06;4980305;28;1141;-19
2022/11/30 01:56:51;;;;;;;;;;;;;;;30.42;22.39;101230.72;4979495;28;1972;-20
2022/11/30 01:59:16;;;;;;;;;;;;;;;29.68;22.52;101222.56;4980385;28;1153;-20
2022/11/30 02:01:41;;;;;;;;;;;;;;;29.16;22.75;101214.34;4961736;28;1098;-20
2022/11/30 02:04:08;;;;;;;;;;;;;;;29.89;23.11;101202.81;4979956;28;1113;-20
2022/11/30 02:06:34;;;;;;;;;;;;;;;30.26;22.74;101212.81;4963081;28;1225;-19
2022/11/30 02:08:59;;;;;;;;;;;;;;;30.33;22.66;101208.28;4974553;28;1157;-20
2022/11/30 02:11:24;;;;;;;;;;;;;;;29.43;22.67;101212.00;4962798;28;1213;-20
2022/11/30 02:14:08;;;;;;;;;;;;;;;29.39;23.89;101216.13;4979482;28;1094;-20
2022/11/30 02:16:52;;;;;;;;;;;;;;;30.02;23.12;101225.69;4980035;28;1902;-19
2022/11/30 02:19:20;;;;;;;;;;;;;;;30.23;22.79;101235.75;4979816;28;1268;-19
2022/11/30 02:21:47;;;;;;;;;;;;;;;30.16;22.17;101238.34;4979525;28;908;-20
2022/11/30 02:24:29;;;;;;;;;;;;;;;29.37;22.47;101229.00;4979223;28;1184;-20
2022/11/30 02:27:03;;;;;;;;;;;;;;;29.66;23.58;101236.31;4962549;28;1122;-20
2022/11/30 02:29:30;;;;;;;;;;;;;;;30.28;22.84;101240.63;4979939;28;1161;-20
2022/11/30 02:31:58;;;;;;;;;;;;;;;30.42;22.58;101238.84;4979410;28;1311;-20
2022/11/30 02:34:24;;;;;;;;;;;;;;;30.55;22.49;101232.72;4979613;28;1134;-20
2022/11/30 02:36:49;;;;;;;;;;;;;;;29.52;22.50;101248.84;4962301;28;1910;-20
2022/11/30 02:39:16;;;;;;;;;;;;;;;29.36;23.84;101240.88;4979285;28;1177;-20
2022/11/30 02:41:41;;;;;;;;;;;;;;;30.03;22.85;101243.66;4979180;28;1209;-20
2022/11/30 02:44:08;;;;;;;;;;;;;;;30.31;22.57;101241.03;4978813;28;1118;-20
2022/11/30 02:46:45;;;;;;;;;;;;;;;30.48;22.40;101239.97;4979642;28;1210;-20
2022/11/30 02:49:12;;;;;;;;;;;;;;;29.46;22.52;101230.63;4979961;28;1154;-19
2022/11/30 02:51:37;;;;;;;;;;;;;;;29.45;23.73;101231.63;4961797;28;1165;-20
2022/11/30 02:54:03;;;;;;;;;;;;;;;30.00;23.07;101234.00;4961760;28;1134;-20
2022/11/30 02:56:28;;;;;;;;;;;;;;;30.19;22.72;101231.72;4961366;28;1898;-19
2022/11/30 02:58:53;;;;;;;;;;;;;;;30.43;22.39;101233.22;4962220;28;1138;-20
2022/11/30 03:01:19;;;;;;;;;;;;;;;29.77;22.44;101229.56;4979042;28;1166;-20
2022/11/30 03:03:44;;;;;;;;;;;;;;;29.24;22.65;101229.66;4979053;28;1217;-20
2022/11/30 03:06:10;;;;;;;;;;;;;;;29.91;23.14;101227.84;4978529;28;1213;-20
2022/11/30 03:08:35;;;;;;;;;;;;;;;30.31;22.58;101241.03;4969956;28;1133;-20
2022/11/30 03:11:01;;;;;;;;;;;;;;;30.57;22.33;101229.78;4978846;28;1201;-20
2022/11/30 03:13:26;;;;;;;;;;;;;;;30.17;21.94;101226.47;4978692;28;1149;-19
2022/11/30 03:15:52;;;;;;;;;;;;;;;29.33;22.40;101212.28;4961087;28;1906;-20
2022/11/30 03:18:17;;;;;;;;;;;;;;;29.88;23.13;101211.16;4978898;28;1205;-19
2022/11/30 03:20:42;;;;;;;;;;;;;;;30.19;22.60;101216.28;4978370;28;1177;-21
2022/11/30 03:23:08;;;;;;;;;;;;;;;30.36;22.37;101226.06;4978863;28;1169;-20
2022/11/30 03:25:33;;;;;;;;;;;;;;;29.90;22.01;101219.91;4977981;28;1205;-20
2022/11/30 03:27:59;;;;;;;;;;;;;;;29.16;22.60;101230.59;4978845;28;1137;-20
2022/11/30 03:30:24;;;;;;;;;;;;;;;29.87;23.05;101234.69;4978399;28;1145;-20
2022/11/30 03:32:50;;;;;;;;;;;;;;;30.34;22.51;101234.41;4978369;28;1177;-20
2022/11/30 03:35:15;;;;;;;;;;;;;;;30.41;22.28;101221.72;4978259;28;1216;-20
2022/11/30 03:37:41;;;;;;;;;;;;;;;30.54;22.04;101214.75;4977995;28;1907;-19
2022/11/30 03:40:06;;;;;;;;;;;;;;;29.53;22.27;101200.88;4978552;28;1125;-19
2022/11/30 03:42:32;;;;;;;;;;;;;;;29.56;23.27;101208.63;4978785;28;1194;-20
2022/11/30 03:44:57;;;;;;;;;;;;;;;30.23;22.60;101211.31;4977730;28;1198;-20
2022/11/30 03:47:22;;;;;;;;;;;;;;;30.49;22.17;101192.78;4977651;28;1276;-20
2022/11/30 03:49:48;;;;;;;;;;;;;;;30.60;22.19;101203.09;4978122;28;1114;-20
2022/11/30 03:52:13;;;;;;;;;;;;;;;29.25;20.85;101205.09;4977326;28;1324;-20
2022/11/30 03:54:38;;;;;;;;;;;;;;;28.03;22.36;101200.31;4978054;28;1106;-20
2022/11/30 03:57:04;;;;;;;;;;;;;;;28.31;23.24;101199.78;4977348;28;1971;-20
2022/11/30 03:59:29;;;;;;;;;;;;;;;28.42;23.20;101195.88;4978098;28;1186;-19
2022/11/30 04:01:54;;;;;;;;;;;;;;;28.52;22.88;101190.19;4977755;28;1081;-19
2022/11/30 04:04:20;;;;;;;;;;;;;;;28.59;23.02;101177.59;4977791;28;1157;-20
2022/11/30 04:06:45;;;;;;;;;;;;;;;28.46;22.74;101183.63;4977925;28;1117;-20
2022/11/30 04:09:10;;;;;;;;;;;;;;;27.61;23.58;101172.66;4964584;28;1074;-19
2022/11/30 04:11:35;;;;;;;;;;;;;;;27.29;24.15;101187.97;4977088;28;1194;-19
2022/11/30 04:14:01;;;;;;;;;;;;;;;26.92;24.46;101185.66;4975224;28;2442;-19
2022/11/30 04:16:26;;;;;;;;;;;;;;;27.29;24.50;101188.81;4977291;28;1902;-20
2022/11/30 04:18:51;;;;;;;;;;;;;;;26.86;24.53;101197.13;4977134;28;1297;-19
2022/11/30 04:21:17;;;;;;;;;;;;;;;26.62;24.85;101198.81;4976741;28;1360;-19
2022/11/30 04:23:43;;;;;;;;;;;;;;;27.66;23.65;101199.13;4976291;28;1323;-19
2022/11/30 04:26:10;;;;;;;;;;;;;;;28.08;23.07;101205.19;4976689;28;1174;-20
2022/11/30 04:28:35;;;;;;;;;;;;;;;28.09;22.94;101215.00;4976689;28;1302;-19
2022/11/30 04:31:01;;;;;;;;;;;;;;;27.18;23.80;101225.09;4977187;28;1197;-20
2022/11/30 04:33:27;;;;;;;;;;;;;;;26.68;24.38;101224.28;4976440;28;1078;-20
2022/11/30 04:35:56;;;;;;;;;;;;;;;27.37;23.48;101221.19;4976612;28;1906;-20
2022/11/30 04:38:21;;;;;;;;;;;;;;;27.90;23.10;101222.53;4977189;28;1145;-20
2022/11/30 04:40:46;;;;;;;;;;;;;;;27.91;23.17;101216.09;4977326;28;1225;-20
2022/11/30 04:43:11;;;;;;;;;;;;;;;27.30;23.89;101220.19;4977121;28;1206;-20
2022/11/30 04:45:37;;;;;;;;;;;;;;;26.85;23.67;101211.63;4975707;28;2077;-19
2022/11/30 04:48:03;;;;;;;;;;;;;;;27.34;23.48;101237.72;4976565;28;1055;-18
2022/11/30 04:50:28;;;;;;;;;;;;;;;27.61;22.95;101230.22;4975755;28;1290;-19
2022/11/30 04:52:53;;;;;;;;;;;;;;;27.67;22.80;101231.41;4976865;28;1455;-20
2022/11/30 04:55:19;;;;;;;;;;;;;;;26.89;23.71;101227.31;4976160;28;1211;-20
2022/11/30 04:57:45;;;;;;;;;;;;;;;26.40;23.78;101230.84;4970257;28;1973;-19
2022/11/30 05:00:10;;;;;;;;;;;;;;;27.12;23.50;101226.66;4973368;28;1145;-20
2022/11/30 05:02:36;;;;;;;;;;;;;;;27.65;23.11;101230.72;4976881;28;1161;-20
2022/11/30 05:05:01;;;;;;;;;;;;;;;27.69;22.79;101231.25;4976885;28;1074;-20
2022/11/30 05:07:26;;;;;;;;;;;;;;;26.89;24.25;101231.88;4958606;28;1141;-20
2022/11/30 05:09:52;;;;;;;;;;;;;;;26.50;24.47;101222.59;4967304;28;1134;-19
2022/11/30 05:12:18;;;;;;;;;;;;;;;27.41;23.60;101237.06;4976557;28;1224;-19
2022/11/30 05:14:43;;;;;;;;;;;;;;;27.26;23.85;101235.91;4977484;28;1979;-19
2022/11/30 05:17:08;;;;;;;;;;;;;;;26.72;24.65;101233.72;4976985;28;1895;-19
2022/11/30 05:19:33;;;;;;;;;;;;;;;27.13;24.28;101239.13;4976725;28;1185;-19
2022/11/30 05:21:59;;;;;;;;;;;;;;;27.72;23.70;101249.81;4976902;28;909;-19
2022/11/30 05:24:24;;;;;;;;;;;;;;;27.90;23.31;101243.31;4974912;28;1176;-18
2022/11/30 05:26:49;;;;;;;;;;;;;;;27.84;23.17;101259.22;4972119;28;1209;-19
2022/11/30 05:29:15;;;;;;;;;;;;;;;27.24;23.67;101254.13;4973451;28;1293;-18
2022/11/30 05:31:40;;;;;;;;;;;;;;;26.40;24.92;101241.63;4976619;28;1133;-19
2022/11/30 05:34:05;;;;;;;;;;;;;;;27.21;24.27;101254.47;4975654;28;1163;-19
2022/11/30 05:36:30;;;;;;;;;;;;;;;27.21;24.11;101251.78;4979573;28;1918;-19
2022/11/30 05:38:56;;;;;;;;;;;;;;;26.90;24.13;101258.72;4980319;28;1059;-19
2022/11/30 05:41:21;;;;;;;;;;;;;;;27.67;23.94;101261.13;4979203;28;1168;-19
2022/11/30 05:43:46;;;;;;;;;;;;;;;28.05;23.18;101275.84;4978068;28;1951;-19
2022/11/30 05:46:11;;;;;;;;;;;;;;;28.15;23.36;101270.22;4977531;28;1239;-19
2022/11/30 05:48:37;;;;;;;;;;;;;;;28.01;22.86;101278.06;4979588;28;1513;-19
2022/11/30 05:51:06;;;;;;;;;;;;;;;26.94;24.11;101271.88;4979881;28;980;-19
2022/11/30 05:53:31;;;;;;;;;;;;;;;27.27;24.01;101255.66;4980221;28;1165;-19
2022/11/30 05:56:00;;;;;;;;;;;;;;;28.07;23.19;101260.28;4979223;28;1945;-19
2022/11/30 05:58:25;;;;;;;;;;;;;;;28.34;22.75;101272.50;4978871;28;1007;-19
2022/11/30 06:00:50;;;;;;;;;;;;;;;27.82;23.25;101273.94;4978533;28;1214;-19
2022/11/30 06:03:16;;;;;;;;;;;;;;;27.13;24.04;101289.59;4979382;28;1123;-19
2022/11/30 06:05:41;;;;;;;;;;;;;;;27.95;23.54;101282.31;4978886;28;1237;-19
2022/11/30 06:08:06;;;;;;;;;;;;;;;28.30;23.14;101291.94;4979058;28;1082;-19
2022/11/30 06:10:31;;;;;;;;;;;;;;;28.45;22.94;101294.75;4969871;28;1177;-19
2022/11/30 06:12:57;;;;;;;;;;;;;;;27.57;23.27;101299.16;4976244;28;1122;-19
2022/11/30 06:15:22;;;;;;;;;;;;;;;27.25;24.13;101307.16;4973500;28;1855;-19
2022/11/30 06:17:47;;;;;;;;;;;;;;;28.01;23.09;101306.97;4979184;28;1957;-19
2022/11/30 06:20:13;;;;;;;;;;;;;;;28.18;22.87;101316.69;4978310;28;1122;-19
2022/11/30 06:22:38;;;;;;;;;;;;;;;27.96;22.94;101334.56;4978740;28;1133;-18
2022/11/30 06:25:04;;;;;;;;;;;;;;;26.98;23.42;101317.25;4979367;28;1507;-19
2022/11/30 06:27:30;;;;;;;;;;;;;;;26.39;24.83;101337.88;4978941;28;1094;-18
2022/11/30 06:29:55;;;;;;;;;;;;;;;27.10;24.14;101330.44;4977799;28;1187;-19
2022/11/30 06:32:20;;;;;;;;;;;;;;;26.82;24.29;101353.19;4967270;28;1188;-18
2022/11/30 06:34:46;;;;;;;;;;;;;;;26.22;25.01;101344.22;4976691;28;1149;-19
2022/11/30 06:37:11;;;;;;;;;;;;;;;26.76;24.42;101354.69;4978783;28;1910;-19
2022/11/30 06:39:36;;;;;;;;;;;;;;;27.49;23.29;101361.31;4979277;28;1161;-18
2022/11/30 06:42:02;;;;;;;;;;;;;;;27.69;23.32;101353.72;4978815;28;1126;-18
2022/11/30 06:44:27;;;;;;;;;;;;;;;27.84;23.09;101353.84;4971372;28;2104;-19
2022/11/30 06:46:52;;;;;;;;;;;;;;;27.17;24.28;101346.81;4977633;28;1130;-19
2022/11/30 06:49:17;;;;;;;;;;;;;;;26.70;24.92;101354.50;4978819;28;1153;-18
2022/11/30 06:51:43;;;;;;;;;;;;;;;27.54;23.94;101352.69;4979159;28;1176;-18
2022/11/30 06:54:08;;;;;;;;;;;;;;;28.07;23.47;101349.53;4978558;28;1145;-19
2022/11/30 06:56:33;;;;;;;;;;;;;;;28.01;23.19;101363.78;4978872;28;1898;-19
2022/11/30 06:58:59;;;;;;;;;;;;;;;27.09;24.44;101358.47;4978057;28;1252;-18
2022/11/30 07:01:24;;;;;;;;;;;;;;;27.37;24.25;101364.38;4978495;28;1019;-18
2022/11/30 07:03:49;;;;;;;;;;;;;;;28.04;23.53;101355.31;4976801;28;1424;-19
2022/11/30 07:06:14;;;;;;;;;;;;;;;28.17;23.20;101357.44;4970653;28;1255;-19
2022/11/30 07:08:40;;;;;;;;;;;;;;;28.07;23.71;101366.63;4975581;28;1208;-18
2022/11/30 07:11:06;;;;;;;;;;;;;;;27.31;24.70;101364.22;4978249;28;877;-19
2022/11/30 07:13:31;;;;;;;;;;;;;;;27.60;24.45;101360.97;4978055;28;991;-18
2022/11/30 07:15:56;;;;;;;;;;;;;;;28.26;23.88;101358.25;4966712;28;1891;-19
2022/11/30 07:18:22;;;;;;;;;;;;;;;28.40;23.98;101360.25;4977790;28;1195;-19
2022/11/30 07:20:47;;;;;;;;;;;;;;;27.60;24.11;101363.66;4978535;28;1188;-18
2022/11/30 07:26:08;;;;;;;;;;;;;;;27.96;24.33;101358.91;4978269;28;1253;-19
2022/11/30 07:28:37;;;;;;;;;;;;;;;28.36;23.87;101353.53;4978063;28;1118;-18
2022/11/30 07:31:15;;;;;;;;;;;;;;;28.30;23.76;101365.00;4978208;28;1162;-18
2022/11/30 07:33:40;;;;;;;;;;;;;;;27.36;24.47;101351.03;4977849;28;1161;-19
2022/11/30 07:36:06;;;;;;;;;;;;;;;27.67;24.88;101362.97;4977892;28;1910;-19
2022/11/30 07:38:31;;;;;;;;;;;;;;;28.26;24.43;101369.09;4976614;28;1252;-19
2022/11/30 07:40:56;;;;;;;;;;;;;;;28.41;24.41;101370.03;4975391;28;1215;-19
2022/11/30 07:43:22;;;;;;;;;;;;;;;28.30;23.99;101359.59;4976235;28;1058;-31
2022/11/30 07:45:51;;;;;;;;;;;;;;;27.54;25.00;101358.97;4974623;28;2169;-29
2022/11/30 07:48:17;;;;;;;;;;;;;;;28.01;24.78;101361.06;4976104;28;939;-28
2022/11/30 07:50:42;;;;;;;;;;;;;;;28.44;24.14;101356.19;4977928;28;1232;-30
2022/11/30 07:53:07;;;;;;;;;;;;;;;28.57;24.12;101366.44;4977506;28;1158;-32
2022/11/30 07:55:33;;;;;;;;;;;;;;;27.60;24.70;101369.06;4977209;28;1169;-26
2022/11/30 07:57:58;;;;;;;;;;;;;;;27.19;25.30;101350.19;4977491;28;1911;-31
2022/11/30 08:00:23;;;;;;;;;;;;;;;28.25;24.55;101373.66;4976774;28;843;-31
2022/11/30 08:02:49;;;;;;;;;;;;;;;28.40;24.05;101372.94;4976342;28;1196;-32
2022/11/30 08:05:14;;;;;;;;;;;;;;;28.58;24.02;101368.09;4977827;28;1157;-26
2022/11/30 08:07:40;;;;;;;;;;;;;;;27.62;24.50;101369.75;4971012;28;1458;-28
2022/11/30 08:10:05;;;;;;;;;;;;;;;27.36;25.26;101356.44;4973486;28;1150;-29
2022/11/30 08:12:30;;;;;;;;;;;;;;;28.36;24.41;101353.53;4971319;28;1182;-32
2022/11/30 08:14:56;;;;;;;;;;;;;;;28.58;24.15;101372.66;4964172;28;2043;-28
2022/11/30 08:17:21;;;;;;;;;;;;;;;28.35;23.99;101370.75;4977278;28;1906;-32
2022/11/30 08:19:46;;;;;;;;;;;;;;;27.58;24.92;101354.88;4977555;28;1165;-33
2022/11/30 08:22:12;;;;;;;;;;;;;;;27.93;24.75;101367.31;4976550;28;1264;-32
2022/11/30 08:24:37;;;;;;;;;;;;;;;28.48;23.77;101379.16;4976705;28;1303;-31
2022/11/30 08:27:02;;;;;;;;;;;;;;;28.58;24.05;101370.81;4976889;28;1129;-28
2022/11/30 08:29:29;;;;;;;;;;;;;;;28.63;23.92;101366.75;4976815;28;1160;-35
2022/11/30 08:31:54;;;;;;;;;;;;;;;27.70;24.37;101350.00;4976896;28;1548;-34
2022/11/30 08:34:19;;;;;;;;;;;;;;;27.59;25.02;101334.13;4977274;28;1354;-26
2022/11/30 08:36:45;;;;;;;;;;;;;;;28.37;24.21;101328.13;4976567;28;1973;-27
2022/11/30 08:39:11;;;;;;;;;;;;;;;27.64;24.28;101334.44;4977087;28;1150;-31
2022/11/30 08:41:37;;;;;;;;;;;;;;;26.98;25.11;101325.34;4977628;28;1098;-35
2022/11/30 08:44:03;;;;;;;;;;;;;;;27.94;24.60;101315.81;4975036;28;1859;-33
2022/11/30 08:46:28;;;;;;;;;;;;;;;28.28;24.13;101321.06;4976779;28;1130;-28
2022/11/30 08:48:54;;;;;;;;;;;;;;;28.40;24.04;101310.69;4976880;28;925;-35
2022/11/30 08:51:19;;;;;;;;;;;;;;;28.55;23.67;101322.44;4977195;28;1137;-30
2022/11/30 08:53:45;;;;;;;;;;;;;;;27.59;24.40;101320.59;4974992;28;1442;-35
2022/11/30 08:56:11;;;;;;;;;;;;;;;27.25;24.90;101317.97;4976865;28;1906;-30
2022/11/30 08:58:37;;;;;;;;;;;;;;;28.08;24.21;101327.72;4966111;28;1429;-28
2022/11/30 09:01:09;;;;;;;;;;;;;;;27.61;24.63;101322.09;4976408;28;963;-27
2022/11/30 09:03:35;;;;;;;;;;;;;;;27.19;25.04;101326.75;4976566;28;1237;-31
2022/11/30 09:06:07;;;;;;;;;;;;;;;28.16;24.26;101326.84;4976332;28;1257;-28
2022/11/30 09:08:33;;;;;;;;;;;;;;;28.35;23.80;101320.19;4976584;28;928;-30
2022/11/30 09:10:58;;;;;;;;;;;;;;;28.48;23.94;101319.63;4978438;28;1259;-30
2022/11/30 09:13:24;;;;;;;;;;;;;;;27.93;23.93;101307.84;4978934;28;1250;-29
2022/11/30 09:15:55;;;;;;;;;;;;;;;27.48;24.68;101309.13;4979771;28;1986;-30
2022/11/30 09:18:20;;;;;;;;;;;;;;;28.08;24.21;101305.25;4979667;28;1513;-28
2022/11/30 09:20:46;;;;;;;;;;;;;;;28.42;23.69;101304.09;4980404;28;1094;-27
2022/11/30 09:23:11;;;;;;;;;;;;;;;28.61;23.51;101312.78;4978858;28;1512;-28
2022/11/30 09:25:36;;;;;;;;;;;;;;;27.90;23.92;101306.34;4980841;28;1114;-27
2022/11/30 09:28:01;;;;;;;;;;;;;;;27.43;24.79;101311.50;4979933;28;1011;-31
2022/11/30 09:30:27;;;;;;;;;;;;;;;28.15;23.84;101300.81;4979434;28;1224;-32
2022/11/30 09:32:52;;;;;;;;;;;;;;;28.46;23.62;101305.41;4979220;28;1018;-26
2022/11/30 09:35:17;;;;;;;;;;;;;;;28.46;23.34;101304.59;4979437;28;1145;-29
2022/11/30 09:37:43;;;;;;;;;;;;;;;28.04;23.43;101302.06;4979893;28;1906;-28
2022/11/30 09:40:08;;;;;;;;;;;;;;;27.38;24.28;101313.88;4980082;28;1384;-31
2022/11/30 09:42:33;;;;;;;;;;;;;;;27.99;23.96;101309.88;4962408;28;1313;-30
2022/11/30 09:45:01;;;;;;;;;;;;;;;28.43;23.16;101299.50;4978519;28;2384;-32
2022/11/30 09:47:42;;;;;;;;;;;;;;;28.58;22.73;101295.03;4963019;28;1181;-28
2022/11/30 09:50:14;;;;;;;;;;;;;;;27.99;23.34;101296.34;4980149;28;1035;-30
2022/11/30 09:52:43;;;;;;;;;;;;;;;27.31;24.42;101292.09;4980142;28;1201;-30
2022/11/30 09:55:09;;;;;;;;;;;;;;;27.98;23.54;101295.50;4980189;28;1106;-33
2022/11/30 09:57:38;;;;;;;;;;;;;;;28.38;23.10;101286.53;4962077;28;1906;-33
2022/11/30 10:00:13;;;;;;;;;;;;;;;28.42;23.09;101295.97;4979178;28;1193;-33
2022/11/30 10:02:39;;;;;;;;;;;;;;;27.77;23.85;101284.41;4979581;28;1177;-29
2022/11/30 10:05:11;;;;;;;;;;;;;;;27.41;24.19;101282.97;4961911;28;1288;-31
2022/11/30 10:07:55;;;;;;;;;;;;;;;28.26;23.31;101282.53;4962511;28;1229;-28
2022/11/30 10:10:29;;;;;;;;;;;;;;;28.41;23.05;101283.44;4974430;28;1410;-28
2022/11/30 10:12:57;;;;;;;;;;;;;;;28.61;22.93;101285.72;4977929;28;1421;-29
2022/11/30 10:15:25;;;;;;;;;;;;;;;27.61;24.07;101286.97;4977231;28;1892;-29
2022/11/30 10:17:54;;;;;;;;;;;;;;;27.55;24.73;101274.16;4978313;28;1959;-26
2022/11/30 10:20:38;;;;;;;;;;;;;;;28.31;23.64;101278.25;4977881;28;1183;-26
2022/11/30 10:23:06;;;;;;;;;;;;;;;28.49;23.42;101271.75;4977491;28;1171;-29
2022/11/30 10:25:50;;;;;;;;;;;;;;;28.03;23.27;101277.91;4977259;28;1213;-34
2022/11/30 10:28:34;;;;;;;;;;;;;;;27.42;24.22;101263.91;4979196;28;1217;-36
2022/11/30 10:30:59;;;;;;;;;;;;;;;28.16;23.94;101282.75;4977654;28;1206;-31
2022/11/30 10:33:26;;;;;;;;;;;;;;;28.44;23.46;101283.13;4959925;28;1394;-30
2022/11/30 10:35:55;;;;;;;;;;;;;;;28.56;23.54;101283.53;4961321;28;1266;-29
2022/11/30 10:38:28;;;;;;;;;;;;;;;27.66;23.93;101277.50;4977370;28;1906;-31
2022/11/30 10:40:59;;;;;;;;;;;;;;;27.42;24.20;101269.31;4959308;28;1285;-29
2022/11/30 10:43:37;;;;;;;;;;;;;;;28.24;23.53;101264.59;4977917;28;1307;-27
2022/11/30 10:46:02;;;;;;;;;;;;;;;28.38;23.64;101273.00;4961258;28;2146;-28
2022/11/30 10:48:31;;;;;;;;;;;;;;;28.48;23.51;101267.34;4977849;28;1311;-28
2022/11/30 10:50:56;;;;;;;;;;;;;;;27.61;24.31;101262.66;4961276;28;1387;-32
2022/11/30 10:53:22;;;;;;;;;;;;;;;27.71;24.36;101257.06;4961278;28;1304;-33
2022/11/30 10:56:06;;;;;;;;;;;;;;;28.42;23.44;101249.13;4978912;28;1264;-30
2022/11/30 10:58:32;;;;;;;;;;;;;;;28.56;23.46;101269.16;4961524;28;1360;-28
2022/11/30 11:00:58;;;;;;;;;;;;;;;27.95;23.58;101251.72;4978267;28;1358;-33
2022/11/30 11:03:23;;;;;;;;;;;;;;;27.53;23.94;101259.97;4977822;28;1292;-32
2022/11/30 11:06:12;;;;;;;;;;;;;;;28.26;23.73;101255.47;4977713;28;1307;-31
2022/11/30 11:08:38;;;;;;;;;;;;;;;28.57;23.34;101247.34;4966841;28;1655;-30
2022/11/30 11:11:05;;;;;;;;;;;;;;;28.68;23.20;101258.75;4977754;28;1493;-28
2022/11/30 11:13:37;;;;;;;;;;;;;;;27.72;24.03;101256.06;4958188;28;1320;-31
2022/11/30 11:16:02;;;;;;;;;;;;;;;27.36;24.52;101246.50;4977391;28;2297;-28
2022/11/30 11:18:28;;;;;;;;;;;;;;;28.31;23.32;101229.53;4977933;28;1134;-42
2022/11/30 11:21:06;;;;;;;;;;;;;;;28.55;23.08;101221.47;4977314;28;1165;-42
2022/11/30 11:23:33;;;;;;;;;;;;;;;28.56;22.85;101239.41;4960602;28;1300;-41
2022/11/30 11:25:58;;;;;;;;;;;;;;;27.43;23.93;101225.03;4977265;28;1252;-43
2022/11/30 11:28:24;;;;;;;;;;;;;;;27.17;24.80;101238.78;4977935;28;1376;-47
2022/11/30 11:30:53;;;;;;;;;;;;;;;28.09;23.46;101234.75;4960984;28;1127;-37
2022/11/30 11:33:23;;;;;;;;;;;;;;;28.28;23.07;101238.03;4959427;28;1368;-38
2022/11/30 11:35:55;;;;;;;;;;;;;;;27.65;23.71;101246.94;4976832;28;1129;-31
2022/11/30 11:38:27;;;;;;;;;;;;;;;27.30;24.38;101239.09;4975721;28;1983;-32
2022/11/30 11:41:00;;;;;;;;;;;;;;;28.08;23.61;101270.09;4976635;28;1382;-31
2022/11/30 11:43:29;;;;;;;;;;;;;;;28.03;23.61;101283.31;4959273;28;1249;-35
2022/11/30 11:45:56;;;;;;;;;;;;;;;27.48;24.09;101311.84;4977433;28;1916;-37
2022/11/30 11:48:37;;;;;;;;;;;;;;;27.95;24.16;101322.03;4959553;28;1174;-33
2022/11/30 11:51:06;;;;;;;;;;;;;;;28.25;23.76;101327.66;4976230;28;1156;-32
2022/11/30 11:53:40;;;;;;;;;;;;;;;28.29;23.56;101333.56;4976706;28;1214;-31
2022/11/30 11:56:09;;;;;;;;;;;;;;;28.36;23.61;101338.09;4964980;28;1955;-31
2022/11/30 11:58:42;;;;;;;;;;;;;;;27.83;24.51;101333.22;4977583;28;1154;-31
2022/11/30 12:01:10;;;;;;;;;;;;;;;27.50;24.55;101336.84;4959854;28;948;-31
2022/11/30 12:03:41;;;;;;;;;;;;;;;27.66;24.56;101321.56;4960125;28;1055;-30
2022/11/30 12:06:10;;;;;;;;;;;;;;;28.52;23.70;101321.97;4977675;28;1094;-32
2022/11/30 12:08:46;;;;;;;;;;;;;;;27.82;24.25;101304.53;4975647;28;1204;-30
2022/11/30 12:11:11;;;;;;;;;;;;;;;27.75;24.96;101320.59;4958524;28;1204;-33
2022/11/30 12:13:37;;;;;;;;;;;;;;;28.35;24.25;101305.81;4976677;28;1323;-29
2022/11/30 12:16:05;;;;;;;;;;;;;;;28.44;24.26;101320.16;4965114;28;1894;-35
2022/11/30 12:18:31;;;;;;;;;;;;;;;28.61;23.97;101304.66;4976690;28;1195;-32
2022/11/30 12:21:14;;;;;;;;;;;;;;;27.84;24.46;101315.97;4974810;28;1400;-32
2022/11/30 12:24:06;;;;;;;;;;;;;;;28.13;24.62;101315.56;4973045;28;1306;-31
2022/11/30 12:26:39;;;;;;;;;;;;;;;28.50;24.22;101330.25;4945481;28;1183;-32
2022/11/30 12:29:05;;;;;;;;;;;;;;;28.52;23.56;101330.06;4967144;28;1169;-33
2022/11/30 12:31:43;;;;;;;;;;;;;;;27.94;23.85;101347.41;4975909;28;1165;-32
2022/11/30 12:34:08;;;;;;;;;;;;;;;27.42;24.11;101352.19;4973740;28;1521;-34
2022/11/30 12:36:40;;;;;;;;;;;;;;;28.17;23.51;101344.78;4975481;28;1971;-31
2022/11/30 12:39:19;;;;;;;;;;;;;;;28.50;23.19;101353.75;4975720;28;1214;-33
2022/11/30 12:41:48;;;;;;;;;;;;;;;28.62;22.84;101355.06;4959411;28;1119;-31
2022/11/30 12:44:27;;;;;;;;;;;;;;;27.67;24.03;101368.38;4954921;28;1933;-31
2022/11/30 12:47:04;;;;;;;;;;;;;;;27.50;24.32;101371.09;4983017;28;1137;-30
2022/11/30 12:49:48;;;;;;;;;;;;;;;28.32;23.41;101377.34;4977557;28;1296;-34
2022/11/30 12:52:16;;;;;;;;;;;;;;;28.46;23.10;101381.19;4975440;28;1296;-32